Time,TemperatureF,DewpointF,PressureIn,WindDirection,WindDirectionDegrees,WindSpeedMPH,WindSpeedGustMPH,Humidity,HourlyPrecipIn,Conditions,Clouds,dailyrainin,SoftwareType,DateUTC
2013-03-27 00:03:00,35.0,26.0,30.07,West,270,0.0,0.0,68,0.00,,,0.06,,2013-03-27 04:03:00,
2013-03-27 00:13:00,35.0,26.0,30.07,West,270,0.0,0.0,68,0.00,,,0.06,,2013-03-27 04:13:00,
2013-03-27 00:23:00,34.0,25.0,30.07,NW,315,3.0,3.0,68,0.00,,,0.06,,2013-03-27 04:23:00,
2013-03-27 00:33:00,34.0,25.0,30.07,NNW,338,1.0,1.0,68,0.00,,,0.06,,2013-03-27 04:33:00,
2013-03-27 00:42:00,34.0,25.0,30.07,NNW,338,1.0,1.0,68,0.00,,,0.06,,2013-03-27 04:42:00,
2013-03-27 00:53:00,34.0,25.0,30.08,West,270,0.0,0.0,68,0.00,,,0.06,,2013-03-27 04:53:00,
2013-03-27 01:02:00,34.0,25.0,30.07,WNW,293,2.0,3.0,68,0.00,,,0.06,,2013-03-27 05:02:00,
2013-03-27 01:12:00,34.0,25.0,30.07,WNW,293,2.0,3.0,68,0.00,,,0.06,,2013-03-27 05:12:00,
2013-03-27 01:23:00,34.0,25.0,30.08,NNW,338,1.0,2.0,68,0.00,,,0.06,,2013-03-27 05:23:00,
2013-03-27 01:33:00,33.0,24.0,30.07,NW,315,0.0,0.0,68,0.00,,,0.06,,2013-03-27 05:33:00,
2013-03-27 01:42:00,33.0,24.0,30.07,NW,315,0.0,0.0,68,0.00,,,0.06,,2013-03-27 05:42:00,
2013-03-27 01:53:00,33.0,24.0,30.08,NW,315,1.0,7.0,68,0.00,,,0.06,,2013-03-27 05:53:00,
2013-03-27 02:02:00,33.0,24.0,30.08,NW,315,0.0,2.0,68,0.00,,,0.06,,2013-03-27 06:02:00,
2013-03-27 02:12:00,33.0,24.0,30.08,NW,315,0.0,2.0,68,0.00,,,0.06,,2013-03-27 06:12:00,
2013-03-27 02:22:00,32.0,23.0,30.08,WNW,293,0.0,0.0,69,0.00,,,0.06,,2013-03-27 06:22:00,
2013-03-27 02:32:00,32.0,23.0,30.08,WNW,293,1.0,3.0,69,0.00,,,0.06,,2013-03-27 06:32:00,
2013-03-27 02:42:00,32.0,23.0,30.08,WNW,293,1.0,3.0,69,0.00,,,0.06,,2013-03-27 06:42:00,
2013-03-27 02:53:00,32.0,23.0,30.08,West,270,0.0,0.0,69,0.00,,,0.06,,2013-03-27 06:53:00,
2013-03-27 03:02:00,31.0,22.0,30.08,WNW,293,0.0,0.0,69,0.00,,,0.06,,2013-03-27 07:02:00,
2013-03-27 03:12:00,31.0,22.0,30.08,WNW,293,0.0,0.0,69,0.00,,,0.06,,2013-03-27 07:12:00,
2013-03-27 03:22:00,31.0,22.0,30.08,West,270,0.0,0.0,70,0.00,,,0.06,,2013-03-27 07:22:00,
2013-03-27 03:32:00,31.0,22.0,30.07,West,270,0.0,0.0,70,0.00,,,0.06,,2013-03-27 07:32:00,
2013-03-27 03:42:00,31.0,22.0,30.07,West,270,0.0,0.0,70,0.00,,,0.06,,2013-03-27 07:42:00,
2013-03-27 03:53:00,31.0,23.0,30.07,WNW,293,0.0,0.0,71,0.00,,,0.06,,2013-03-27 07:53:00,
2013-03-27 04:02:00,31.0,23.0,30.07,West,270,0.0,0.0,71,0.00,,,0.06,,2013-03-27 08:02:00,
2013-03-27 04:12:00,31.0,23.0,30.07,West,270,0.0,0.0,71,0.00,,,0.06,,2013-03-27 08:12:00,
2013-03-27 04:22:00,30.0,22.0,30.07,West,270,0.0,0.0,71,0.00,,,0.06,,2013-03-27 08:22:00,
2013-03-27 04:32:00,30.0,22.0,30.07,WSW,248,0.0,0.0,72,0.00,,,0.06,,2013-03-27 08:32:00,
2013-03-27 04:43:00,30.0,22.0,30.07,WSW,248,0.0,0.0,72,0.00,,,0.06,,2013-03-27 08:43:00,
2013-03-27 04:52:00,30.0,22.0,30.07,West,270,0.0,0.0,73,0.00,,,0.06,,2013-03-27 08:52:00,
2013-03-27 05:02:00,30.0,22.0,30.07,West,270,0.0,0.0,73,0.00,,,0.06,,2013-03-27 09:02:00,
2013-03-27 05:12:00,30.0,22.0,30.07,West,270,0.0,0.0,73,0.00,,,0.06,,2013-03-27 09:12:00,
2013-03-27 05:22:00,30.0,23.0,30.07,West,270,0.0,3.0,74,0.00,,,0.06,,2013-03-27 09:22:00,
2013-03-27 05:33:00,30.0,23.0,30.07,West,270,1.0,3.0,74,0.00,,,0.06,,2013-03-27 09:33:00,
2013-03-27 05:42:00,30.0,23.0,30.07,West,270,1.0,3.0,74,0.00,,,0.06,,2013-03-27 09:42:00,
2013-03-27 05:52:00,30.0,23.0,30.08,West,270,1.0,7.0,74,0.00,,,0.06,,2013-03-27 09:52:00,
2013-03-27 06:02:00,30.0,23.0,30.08,West,270,5.0,6.0,74,0.00,,,0.06,,2013-03-27 10:02:00,
2013-03-27 06:12:00,30.0,23.0,30.08,West,270,5.0,6.0,74,0.00,,,0.06,,2013-03-27 10:12:00,
2013-03-27 06:23:00,30.0,23.0,30.08,WNW,293,0.0,0.0,74,0.00,,,0.06,,2013-03-27 10:23:00,
2013-03-27 06:32:00,30.0,23.0,30.08,West,270,3.0,5.0,74,0.00,,,0.06,,2013-03-27 10:32:00,
2013-03-27 06:42:00,30.0,23.0,30.08,West,270,3.0,5.0,74,0.00,,,0.06,,2013-03-27 10:42:00,
2013-03-27 06:53:00,30.0,23.0,30.08,West,270,1.0,1.0,74,0.00,,,0.06,,2013-03-27 10:53:00,
2013-03-27 07:02:00,30.0,23.0,30.08,WNW,293,0.0,0.0,74,0.00,,,0.06,,2013-03-27 11:02:00,
2013-03-27 07:12:00,30.0,23.0,30.08,WNW,293,0.0,0.0,74,0.00,,,0.06,,2013-03-27 11:12:00,
2013-03-27 07:22:00,30.0,23.0,30.09,WNW,293,1.0,2.0,75,0.00,,,0.06,,2013-03-27 11:22:00,
2013-03-27 07:32:00,30.0,23.0,30.09,West,270,0.0,0.0,75,0.00,,,0.06,,2013-03-27 11:32:00,
2013-03-27 07:42:00,30.0,23.0,30.09,West,270,0.0,0.0,75,0.00,,,0.06,,2013-03-27 11:42:00,
2013-03-27 07:52:00,30.0,23.0,30.10,NW,315,2.0,5.0,75,0.00,,,0.06,,2013-03-27 11:52:00,
2013-03-27 08:02:00,30.0,23.0,30.10,West,270,0.0,0.0,75,0.00,,,0.06,,2013-03-27 12:02:00,
2013-03-27 08:12:00,30.0,23.0,30.10,West,270,0.0,0.0,75,0.00,,,0.06,,2013-03-27 12:12:00,
2013-03-27 08:23:00,30.0,23.0,30.10,West,270,1.0,0.0,75,0.00,,,0.06,,2013-03-27 12:23:00,
2013-03-27 08:32:00,30.0,23.0,30.10,West,270,0.0,2.0,75,0.00,,,0.06,,2013-03-27 12:32:00,
2013-03-27 08:43:00,30.0,23.0,30.10,West,270,0.0,2.0,75,0.00,,,0.06,,2013-03-27 12:43:00,
2013-03-27 08:52:00,31.0,24.0,30.11,WNW,293,1.0,3.0,75,0.00,,,0.06,,2013-03-27 12:52:00,
2013-03-27 09:02:00,31.0,24.0,30.11,West,270,1.0,1.0,75,0.00,,,0.06,,2013-03-27 13:02:00,
2013-03-27 09:12:00,31.0,24.0,30.11,West,270,1.0,1.0,75,0.00,,,0.06,,2013-03-27 13:12:00,
2013-03-27 09:22:00,32.0,25.0,30.11,West,270,3.0,8.0,75,0.00,,,0.06,,2013-03-27 13:22:00,
2013-03-27 09:32:00,32.0,25.0,30.11,WNW,293,0.0,0.0,75,0.00,,,0.06,,2013-03-27 13:32:00,
2013-03-27 09:42:00,32.0,25.0,30.11,WNW,293,0.0,0.0,75,0.00,,,0.06,,2013-03-27 13:42:00,
2013-03-27 09:53:00,32.0,25.0,30.11,WNW,293,3.0,8.0,75,0.00,,,0.06,,2013-03-27 13:53:00,
2013-03-27 10:02:00,33.0,26.0,30.11,WNW,293,5.0,5.0,75,0.00,,,0.06,,2013-03-27 14:02:00,
2013-03-27 10:12:00,33.0,26.0,30.11,WNW,293,5.0,5.0,75,0.00,,,0.06,,2013-03-27 14:12:00,
2013-03-27 10:22:00,34.0,27.0,30.11,WNW,293,1.0,6.0,74,0.00,,,0.06,,2013-03-27 14:22:00,
2013-03-27 10:32:00,35.0,28.0,30.11,WNW,293,2.0,7.0,74,0.00,,,0.06,,2013-03-27 14:32:00,
2013-03-27 10:42:00,35.0,28.0,30.11,WNW,293,2.0,7.0,74,0.00,,,0.06,,2013-03-27 14:42:00,
2013-03-27 10:52:00,36.0,28.0,30.11,WNW,293,0.0,0.0,73,0.00,,,0.06,,2013-03-27 14:52:00,
2013-03-27 11:02:00,38.0,29.0,30.11,NW,315,6.0,10.0,71,0.00,,,0.06,,2013-03-27 15:02:00,
2013-03-27 11:12:00,38.0,29.0,30.11,NW,315,6.0,10.0,71,0.00,,,0.06,,2013-03-27 15:12:00,
2013-03-27 11:22:00,39.0,30.0,30.11,WNW,293,6.0,8.0,70,0.00,,,0.06,,2013-03-27 15:22:00,
2013-03-27 11:33:00,41.0,31.0,30.11,WNW,293,6.0,8.0,68,0.00,,,0.06,,2013-03-27 15:33:00,
2013-03-27 11:42:00,41.0,31.0,30.11,WNW,293,6.0,8.0,68,0.00,,,0.06,,2013-03-27 15:42:00,
2013-03-27 11:53:00,42.0,31.0,30.12,NNW,338,8.0,13.0,66,0.00,,,0.06,,2013-03-27 15:53:00,
2013-03-27 12:03:00,44.0,33.0,30.11,West,270,2.0,3.0,64,0.00,,,0.06,,2013-03-27 16:03:00,
2013-03-27 12:13:00,44.0,33.0,30.11,West,270,2.0,3.0,64,0.00,,,0.06,,2013-03-27 16:13:00,
2013-03-27 12:22:00,45.0,33.0,30.11,West,270,3.0,7.0,62,0.00,,,0.06,,2013-03-27 16:22:00,
2013-03-27 12:32:00,46.0,33.0,30.12,West,270,0.0,0.0,61,0.00,,,0.06,,2013-03-27 16:32:00,
2013-03-27 12:42:00,46.0,33.0,30.12,West,270,0.0,0.0,61,0.00,,,0.06,,2013-03-27 16:42:00,
2013-03-27 12:52:00,48.0,34.0,30.12,NW,315,10.0,14.0,58,0.00,,,0.06,,2013-03-27 16:52:00,
2013-03-27 13:03:00,49.0,34.0,30.11,NW,315,10.0,15.0,55,0.00,,,0.06,,2013-03-27 17:03:00,
2013-03-27 13:12:00,49.0,34.0,30.11,NW,315,10.0,15.0,55,0.00,,,0.06,,2013-03-27 17:12:00,
2013-03-27 13:22:00,49.0,33.0,30.11,NW,315,9.0,12.0,54,0.00,,,0.06,,2013-03-27 17:22:00,
2013-03-27 13:32:00,49.0,32.0,30.11,WNW,293,5.0,6.0,52,0.00,,,0.06,,2013-03-27 17:32:00,
2013-03-27 13:44:00,49.0,32.0,30.11,WNW,293,5.0,6.0,52,0.00,,,0.06,,2013-03-27 17:44:00,
2013-03-27 13:52:00,50.0,33.0,30.11,West,270,8.0,10.0,52,0.00,,,0.06,,2013-03-27 17:52:00,
2013-03-27 14:02:00,50.0,33.0,30.11,WSW,248,3.0,3.0,52,0.00,,,0.06,,2013-03-27 18:02:00,
2013-03-27 14:12:00,50.0,33.0,30.11,WSW,248,3.0,3.0,52,0.00,,,0.06,,2013-03-27 18:12:00,
2013-03-27 14:23:00,50.0,33.0,30.10,WNW,293,9.0,14.0,51,0.00,,,0.06,,2013-03-27 18:23:00,
2013-03-27 14:32:00,51.0,34.0,30.10,WNW,293,8.0,12.0,51,0.00,,,0.06,,2013-03-27 18:32:00,
2013-03-27 14:42:00,51.0,34.0,30.10,WNW,293,8.0,12.0,51,0.00,,,0.06,,2013-03-27 18:42:00,
2013-03-27 14:53:00,51.0,33.0,30.09,West,270,9.0,12.0,49,0.00,,,0.06,,2013-03-27 18:53:00,
2013-03-27 15:02:00,49.0,31.0,30.09,WNW,293,6.0,10.0,49,0.00,,,0.06,,2013-03-27 19:02:00,
2013-03-27 15:12:00,49.0,31.0,30.09,WNW,293,6.0,10.0,49,0.00,,,0.06,,2013-03-27 19:12:00,
2013-03-27 15:22:00,50.0,32.0,30.09,NW,315,7.0,8.0,50,0.00,,,0.06,,2013-03-27 19:22:00,
2013-03-27 15:32:00,50.0,31.0,30.09,West,270,3.0,8.0,48,0.00,,,0.06,,2013-03-27 19:32:00,
2013-03-27 15:42:00,50.0,31.0,30.09,West,270,3.0,8.0,48,0.00,,,0.06,,2013-03-27 19:42:00,
2013-03-27 15:52:00,51.0,32.0,30.09,West,270,3.0,13.0,48,0.00,,,0.04,,2013-03-27 19:52:00,
2013-03-27 16:02:00,51.0,32.0,30.08,WNW,293,6.0,12.0,48,0.00,,,0.02,,2013-03-27 20:02:00,
2013-03-27 16:12:00,51.0,32.0,30.08,WNW,293,6.0,12.0,48,0.00,,,0.02,,2013-03-27 20:12:00,
2013-03-27 16:22:00,50.0,31.0,30.09,NW,315,7.0,7.0,48,0.00,,,0.02,,2013-03-27 20:22:00,
2013-03-27 16:32:00,51.0,31.0,30.08,NNW,338,9.0,13.0,47,0.00,,,0.02,,2013-03-27 20:32:00,
2013-03-27 16:42:00,51.0,31.0,30.08,NNW,338,9.0,13.0,47,0.00,,,0.02,,2013-03-27 20:42:00,
2013-03-27 16:52:00,50.0,31.0,30.09,NW,315,2.0,6.0,47,0.00,,,0.00,,2013-03-27 20:52:00,
2013-03-27 17:02:00,49.0,30.0,30.09,NW,315,6.0,18.0,47,0.00,,,0.00,,2013-03-27 21:02:00,
2013-03-27 17:12:00,49.0,30.0,30.09,NW,315,6.0,18.0,47,0.00,,,0.00,,2013-03-27 21:12:00,
2013-03-27 17:22:00,49.0,30.0,30.09,WNW,293,7.0,12.0,47,0.00,,,0.00,,2013-03-27 21:22:00,
2013-03-27 17:32:00,49.0,30.0,30.09,West,270,1.0,0.0,47,0.00,,,0.00,,2013-03-27 21:32:00,
2013-03-27 17:43:00,49.0,30.0,30.09,West,270,1.0,0.0,47,0.00,,,0.00,,2013-03-27 21:43:00,
2013-03-27 17:52:00,48.0,29.0,30.09,WNW,293,3.0,13.0,47,0.00,,,0.00,,2013-03-27 21:52:00,
2013-03-27 18:03:00,47.0,28.0,30.09,WNW,293,9.0,13.0,47,0.00,,,0.00,,2013-03-27 22:03:00,
2013-03-27 18:12:00,47.0,28.0,30.09,WNW,293,9.0,13.0,47,0.00,,,0.00,,2013-03-27 22:12:00,
2013-03-27 18:23:00,47.0,28.0,30.10,West,270,8.0,8.0,48,0.00,,,0.00,,2013-03-27 22:23:00,
2013-03-27 18:33:00,46.0,27.0,30.10,North,0,10.0,12.0,48,0.00,,,0.00,,2013-03-27 22:33:00,
2013-03-27 18:42:00,46.0,27.0,30.10,North,0,10.0,12.0,48,0.00,,,0.00,,2013-03-27 22:42:00,
2013-03-27 18:53:00,47.0,28.0,30.10,NW,315,5.0,7.0,48,0.00,,,0.00,,2013-03-27 22:53:00,
2013-03-27 19:02:00,46.0,27.0,30.10,WNW,293,7.0,7.0,48,0.00,,,0.00,,2013-03-27 23:02:00,
2013-03-27 19:12:00,46.0,27.0,30.10,WNW,293,7.0,7.0,48,0.00,,,0.00,,2013-03-27 23:12:00,
2013-03-27 19:22:00,46.0,27.0,30.10,WNW,293,6.0,8.0,48,0.00,,,0.00,,2013-03-27 23:22:00,
2013-03-27 19:32:00,45.0,27.0,30.11,NW,315,3.0,12.0,49,0.00,,,0.00,,2013-03-27 23:32:00,
2013-03-27 19:42:00,45.0,27.0,30.11,NW,315,3.0,12.0,49,0.00,,,0.00,,2013-03-27 23:42:00,
2013-03-27 19:52:00,45.0,28.0,30.11,NNW,338,8.0,12.0,51,0.00,,,0.00,,2013-03-27 23:52:00,
2013-03-27 20:02:00,44.0,28.0,30.11,NNW,338,6.0,9.0,52,0.00,,,0.00,,2013-03-28 00:02:00,
2013-03-27 20:12:00,44.0,28.0,30.11,NNW,338,6.0,9.0,52,0.00,,,0.00,,2013-03-28 00:12:00,
2013-03-27 20:22:00,43.0,27.0,30.12,NW,315,7.0,9.0,53,0.00,,,0.00,,2013-03-28 00:22:00,
2013-03-27 20:32:00,42.0,27.0,30.12,NNW,338,8.0,10.0,54,0.00,,,0.00,,2013-03-28 00:32:00,
2013-03-27 20:43:00,42.0,27.0,30.12,NNW,338,8.0,10.0,54,0.00,,,0.00,,2013-03-28 00:43:00,
2013-03-27 20:52:00,42.0,27.0,30.13,NNW,338,2.0,5.0,55,0.00,,,0.00,,2013-03-28 00:52:00,
2013-03-27 21:02:00,41.0,27.0,30.13,NW,315,0.0,0.0,56,0.00,,,0.00,,2013-03-28 01:02:00,
2013-03-27 21:12:00,41.0,27.0,30.13,NW,315,0.0,0.0,56,0.00,,,0.00,,2013-03-28 01:12:00,
2013-03-27 21:22:00,41.0,27.0,30.14,NW,315,2.0,5.0,56,0.00,,,0.00,,2013-03-28 01:22:00,
2013-03-27 21:32:00,40.0,26.0,30.14,WNW,293,0.0,8.0,56,0.00,,,0.00,,2013-03-28 01:32:00,
2013-03-27 21:42:00,40.0,26.0,30.14,WNW,293,0.0,8.0,56,0.00,,,0.00,,2013-03-28 01:42:00,
2013-03-27 21:53:00,40.0,26.0,30.15,WNW,293,3.0,7.0,56,0.00,,,0.00,,2013-03-28 01:53:00,
2013-03-27 22:02:00,40.0,26.0,30.15,WNW,293,3.0,3.0,57,0.00,,,0.00,,2013-03-28 02:02:00,
2013-03-27 22:12:00,40.0,26.0,30.15,WNW,293,3.0,3.0,57,0.00,,,0.00,,2013-03-28 02:12:00,
2013-03-27 22:22:00,40.0,26.0,30.15,WNW,293,0.0,2.0,57,0.00,,,0.00,,2013-03-28 02:22:00,
2013-03-27 22:32:00,39.0,25.0,30.15,NNW,338,1.0,9.0,58,0.00,,,0.00,,2013-03-28 02:32:00,
2013-03-27 22:42:00,39.0,25.0,30.15,NNW,338,1.0,9.0,58,0.00,,,0.00,,2013-03-28 02:42:00,
2013-03-27 22:52:00,39.0,25.0,30.15,NNW,338,1.0,9.0,58,0.00,,,0.00,,2013-03-28 02:52:00,
2013-03-27 23:02:00,37.0,24.0,30.16,NW,315,0.0,0.0,59,0.00,,,0.00,,2013-03-28 03:02:00,
2013-03-27 23:12:00,37.0,24.0,30.16,NW,315,0.0,0.0,59,0.00,,,0.00,,2013-03-28 03:12:00,
2013-03-27 23:22:00,37.0,24.0,30.16,West,270,0.0,0.0,59,0.00,,,0.00,,2013-03-28 03:22:00,
2013-03-27 23:33:00,36.0,24.0,30.16,NW,315,0.0,0.0,61,0.00,,,0.00,,2013-03-28 03:33:00,
2013-03-27 23:43:00,36.0,24.0,30.16,NW,315,0.0,0.0,61,0.00,,,0.00,,2013-03-28 03:43:00,
2013-03-27 23:53:00,35.0,23.0,30.16,WNW,293,0.0,0.0,61,0.00,,,0.00,,2013-03-28 03:53:00,